sensor_id;sensor_type;location;lat;lon;timestamp;P1;durP1;ratioP1;P2;durP2;ratioP2
47021;SDS011;32779;52.264;6.154;2022-12-29T00:02:14;6.20;;;3.15;;
47021;SDS011;32779;52.264;6.154;2022-12-29T00:07:06;6.03;;;2.90;;
47021;SDS011;32779;52.264;6.154;2022-12-29T00:09:32;4.97;;;2.75;;
47021;SDS011;32779;52.264;6.154;2022-12-29T00:11:58;3.15;;;2.58;;
47021;SDS011;32779;52.264;6.154;2022-12-29T00:17:08;5.75;;;3.25;;
47021;SDS011;32779;52.264;6.154;2022-12-29T00:19:34;3.40;;;3.00;;
47021;SDS011;32779;52.264;6.154;2022-12-29T00:22:18;4.63;;;3.38;;
47021;SDS011;32779;52.264;6.154;2022-12-29T00:25:03;4.28;;;2.70;;
47021;SDS011;32779;52.264;6.154;2022-12-29T00:27:47;3.80;;;2.90;;
47021;SDS011;32779;52.264;6.154;2022-12-29T00:30:32;4.07;;;3.13;;
47021;SDS011;32779;52.264;6.154;2022-12-29T00:33:17;3.30;;;3.00;;
47021;SDS011;32779;52.264;6.154;2022-12-29T00:38:35;5.90;;;2.90;;
47021;SDS011;32779;52.264;6.154;2022-12-29T00:41:23;4.70;;;3.20;;
47021;SDS011;32779;52.264;6.154;2022-12-29T00:44:08;4.43;;;2.83;;
47021;SDS011;32779;52.264;6.154;2022-12-29T00:46:39;5.50;;;3.40;;
47021;SDS011;32779;52.264;6.154;2022-12-29T00:49:06;5.25;;;3.25;;
47021;SDS011;32779;52.264;6.154;2022-12-29T00:51:53;7.07;;;3.03;;
47021;SDS011;32779;52.264;6.154;2022-12-29T00:54:20;4.50;;;2.72;;
47021;SDS011;32779;52.264;6.154;2022-12-29T00:56:47;3.90;;;2.75;;
47021;SDS011;32779;52.264;6.154;2022-12-29T00:59:13;2.58;;;2.30;;
47021;SDS011;32779;52.264;6.154;2022-12-29T01:01:39;4.63;;;2.80;;
47021;SDS011;32779;52.264;6.154;2022-12-29T01:04:05;3.35;;;2.75;;
47021;SDS011;32779;52.264;6.154;2022-12-29T01:06:32;4.25;;;3.22;;
47021;SDS011;32779;52.264;6.154;2022-12-29T01:08:58;5.57;;;2.88;;
47021;SDS011;32779;52.264;6.154;2022-12-29T01:11:42;3.38;;;3.08;;
47021;SDS011;32779;52.264;6.154;2022-12-29T01:14:08;4.30;;;2.45;;
47021;SDS011;32779;52.264;6.154;2022-12-29T01:16:33;4.28;;;3.10;;
47021;SDS011;32779;52.264;6.154;2022-12-29T01:18:59;3.75;;;3.05;;
47021;SDS011;32779;52.264;6.154;2022-12-29T01:21:25;5.60;;;3.10;;
47021;SDS011;32779;52.264;6.154;2022-12-29T01:23:50;3.25;;;2.30;;
47021;SDS011;32779;52.264;6.154;2022-12-29T01:26:16;4.80;;;2.53;;
47021;SDS011;32779;52.264;6.154;2022-12-29T01:28:43;2.90;;;2.20;;
47021;SDS011;32779;52.264;6.154;2022-12-29T01:31:09;6.25;;;2.25;;
47021;SDS011;32779;52.264;6.154;2022-12-29T01:33:36;2.33;;;2.13;;
47021;SDS011;32779;52.264;6.154;2022-12-29T01:36:02;5.22;;;2.30;;
47021;SDS011;32779;52.264;6.154;2022-12-29T01:38:29;2.58;;;1.60;;
47021;SDS011;32779;52.264;6.154;2022-12-29T01:40:55;2.78;;;1.95;;
47021;SDS011;32779;52.264;6.154;2022-12-29T01:43:21;2.55;;;1.60;;
47021;SDS011;32779;52.264;6.154;2022-12-29T01:45:55;2.72;;;1.70;;
47021;SDS011;32779;52.264;6.154;2022-12-29T01:48:21;3.22;;;1.88;;
47021;SDS011;32779;52.264;6.154;2022-12-29T01:50:49;2.33;;;1.88;;
47021;SDS011;32779;52.264;6.154;2022-12-29T01:53:18;2.90;;;1.92;;
47021;SDS011;32779;52.264;6.154;2022-12-29T01:55:54;3.42;;;1.80;;
47021;SDS011;32779;52.264;6.154;2022-12-29T01:58:24;2.88;;;2.33;;
47021;SDS011;32779;52.264;6.154;2022-12-29T02:00:54;2.78;;;1.70;;
47021;SDS011;32779;52.264;6.154;2022-12-29T02:03:20;2.00;;;1.50;;
47021;SDS011;32779;52.264;6.154;2022-12-29T02:08:23;4.63;;;1.65;;
47021;SDS011;32779;52.264;6.154;2022-12-29T02:10:53;3.10;;;1.50;;
47021;SDS011;32779;52.264;6.154;2022-12-29T02:13:19;2.03;;;1.45;;
47021;SDS011;32779;52.264;6.154;2022-12-29T02:15:48;2.80;;;1.48;;
47021;SDS011;32779;52.264;6.154;2022-12-29T02:26:40;1.02;;;0.98;;
47021;SDS011;32779;52.264;6.154;2022-12-29T02:29:21;1.98;;;1.30;;
47021;SDS011;32779;52.264;6.154;2022-12-29T02:34:55;3.63;;;1.40;;
47021;SDS011;32779;52.264;6.154;2022-12-29T02:37:37;2.30;;;1.25;;
47021;SDS011;32779;52.264;6.154;2022-12-29T02:40:23;2.72;;;1.65;;
47021;SDS011;32779;52.264;6.154;2022-12-29T02:50:38;1.73;;;1.33;;
47021;SDS011;32779;52.264;6.154;2022-12-29T02:53:09;2.33;;;1.20;;
47021;SDS011;32779;52.264;6.154;2022-12-29T02:55:38;2.28;;;1.13;;
47021;SDS011;32779;52.264;6.154;2022-12-29T03:00:55;2.83;;;1.10;;
47021;SDS011;32779;52.264;6.154;2022-12-29T03:11:23;3.13;;;1.00;;
47021;SDS011;32779;52.264;6.154;2022-12-29T03:17:03;3.80;;;0.98;;
47021;SDS011;32779;52.264;6.154;2022-12-29T03:19:41;3.30;;;0.90;;
47021;SDS011;32779;52.264;6.154;2022-12-29T03:22:17;2.85;;;0.90;;
47021;SDS011;32779;52.264;6.154;2022-12-29T03:24:54;2.17;;;0.85;;
47021;SDS011;32779;52.264;6.154;2022-12-29T03:27:28;1.92;;;0.70;;
47021;SDS011;32779;52.264;6.154;2022-12-29T03:29:57;1.58;;;0.50;;
47021;SDS011;32779;52.264;6.154;2022-12-29T03:32:29;2.40;;;0.70;;
47021;SDS011;32779;52.264;6.154;2022-12-29T03:34:58;3.42;;;0.70;;
47021;SDS011;32779;52.264;6.154;2022-12-29T03:37:26;3.65;;;0.90;;
47021;SDS011;32779;52.264;6.154;2022-12-29T03:39:56;1.83;;;0.90;;
47021;SDS011;32779;52.264;6.154;2022-12-29T03:42:23;4.25;;;0.90;;
47021;SDS011;32779;52.264;6.154;2022-12-29T03:44:54;2.90;;;0.95;;
47021;SDS011;32779;52.264;6.154;2022-12-29T03:47:21;2.17;;;0.80;;
47021;SDS011;32779;52.264;6.154;2022-12-29T03:49:48;4.53;;;0.75;;
47021;SDS011;32779;52.264;6.154;2022-12-29T03:52:14;2.47;;;0.60;;
47021;SDS011;32779;52.264;6.154;2022-12-29T03:57:05;2.15;;;0.70;;
47021;SDS011;32779;52.264;6.154;2022-12-29T03:59:31;1.85;;;0.82;;
47021;SDS011;32779;52.264;6.154;2022-12-29T04:01:56;4.03;;;1.08;;
47021;SDS011;32779;52.264;6.154;2022-12-29T04:04:22;2.80;;;0.73;;
47021;SDS011;32779;52.264;6.154;2022-12-29T04:06:48;4.57;;;0.95;;
47021;SDS011;32779;52.264;6.154;2022-12-29T04:09:13;4.53;;;0.80;;
47021;SDS011;32779;52.264;6.154;2022-12-29T04:11:39;2.90;;;0.60;;
47021;SDS011;32779;52.264;6.154;2022-12-29T04:14:04;2.67;;;0.77;;
47021;SDS011;32779;52.264;6.154;2022-12-29T04:16:30;2.75;;;0.82;;
47021;SDS011;32779;52.264;6.154;2022-12-29T04:18:55;2.40;;;0.80;;
47021;SDS011;32779;52.264;6.154;2022-12-29T04:21:21;4.43;;;0.93;;
47021;SDS011;32779;52.264;6.154;2022-12-29T04:23:46;6.03;;;0.80;;
47021;SDS011;32779;52.264;6.154;2022-12-29T04:26:12;4.13;;;0.93;;
47021;SDS011;32779;52.264;6.154;2022-12-29T04:28:38;4.78;;;1.00;;
47021;SDS011;32779;52.264;6.154;2022-12-29T04:31:04;4.20;;;0.75;;
47021;SDS011;32779;52.264;6.154;2022-12-29T04:33:30;2.92;;;0.80;;
47021;SDS011;32779;52.264;6.154;2022-12-29T04:35:56;5.72;;;1.15;;
47021;SDS011;32779;52.264;6.154;2022-12-29T04:38:22;5.65;;;0.90;;
47021;SDS011;32779;52.264;6.154;2022-12-29T04:40:49;4.55;;;1.10;;
47021;SDS011;32779;52.264;6.154;2022-12-29T04:43:15;1.80;;;0.80;;
47021;SDS011;32779;52.264;6.154;2022-12-29T04:45:45;3.08;;;0.80;;
47021;SDS011;32779;52.264;6.154;2022-12-29T04:48:11;3.25;;;1.17;;
47021;SDS011;32779;52.264;6.154;2022-12-29T04:50:37;5.60;;;1.00;;
47021;SDS011;32779;52.264;6.154;2022-12-29T04:53:03;7.28;;;1.17;;
47021;SDS011;32779;52.264;6.154;2022-12-29T04:55:29;4.65;;;1.08;;
47021;SDS011;32779;52.264;6.154;2022-12-29T04:57:54;4.70;;;1.00;;
47021;SDS011;32779;52.264;6.154;2022-12-29T05:00:20;6.05;;;1.30;;
47021;SDS011;32779;52.264;6.154;2022-12-29T05:02:46;11.80;;;1.30;;
47021;SDS011;32779;52.264;6.154;2022-12-29T05:05:12;2.63;;;1.00;;
47021;SDS011;32779;52.264;6.154;2022-12-29T05:07:38;2.90;;;1.20;;
47021;SDS011;32779;52.264;6.154;2022-12-29T05:10:04;4.25;;;1.10;;
47021;SDS011;32779;52.264;6.154;2022-12-29T05:12:31;4.40;;;1.00;;
47021;SDS011;32779;52.264;6.154;2022-12-29T05:14:57;6.78;;;1.10;;
47021;SDS011;32779;52.264;6.154;2022-12-29T05:17:23;14.98;;;1.48;;
47021;SDS011;32779;52.264;6.154;2022-12-29T05:19:48;4.63;;;1.05;;
47021;SDS011;32779;52.264;6.154;2022-12-29T05:22:14;8.13;;;1.33;;
47021;SDS011;32779;52.264;6.154;2022-12-29T05:24:39;8.90;;;1.42;;
47021;SDS011;32779;52.264;6.154;2022-12-29T05:27:05;8.85;;;1.08;;
47021;SDS011;32779;52.264;6.154;2022-12-29T05:29:31;9.63;;;1.45;;
47021;SDS011;32779;52.264;6.154;2022-12-29T05:31:56;10.65;;;1.60;;
47021;SDS011;32779;52.264;6.154;2022-12-29T05:34:22;8.77;;;1.50;;
47021;SDS011;32779;52.264;6.154;2022-12-29T05:36:47;10.10;;;1.80;;
47021;SDS011;32779;52.264;6.154;2022-12-29T05:39:13;14.80;;;2.35;;
47021;SDS011;32779;52.264;6.154;2022-12-29T05:41:38;11.75;;;1.55;;
47021;SDS011;32779;52.264;6.154;2022-12-29T05:44:04;15.18;;;1.92;;
47021;SDS011;32779;52.264;6.154;2022-12-29T05:46:30;13.63;;;2.00;;
47021;SDS011;32779;52.264;6.154;2022-12-29T05:48:55;15.02;;;3.00;;
47021;SDS011;32779;52.264;6.154;2022-12-29T05:51:21;9.40;;;2.40;;
47021;SDS011;32779;52.264;6.154;2022-12-29T05:53:46;7.32;;;1.95;;
47021;SDS011;32779;52.264;6.154;2022-12-29T05:56:12;18.20;;;2.35;;
47021;SDS011;32779;52.264;6.154;2022-12-29T05:58:38;9.85;;;1.45;;
47021;SDS011;32779;52.264;6.154;2022-12-29T06:01:03;11.80;;;1.65;;
47021;SDS011;32779;52.264;6.154;2022-12-29T06:03:29;8.50;;;1.90;;
47021;SDS011;32779;52.264;6.154;2022-12-29T06:05:55;10.60;;;1.58;;
47021;SDS011;32779;52.264;6.154;2022-12-29T06:08:20;11.02;;;1.42;;
47021;SDS011;32779;52.264;6.154;2022-12-29T06:10:46;8.35;;;1.40;;
47021;SDS011;32779;52.264;6.154;2022-12-29T06:13:11;10.18;;;1.58;;
47021;SDS011;32779;52.264;6.154;2022-12-29T06:15:37;6.35;;;1.45;;
47021;SDS011;32779;52.264;6.154;2022-12-29T06:18:02;9.48;;;1.50;;
47021;SDS011;32779;52.264;6.154;2022-12-29T06:20:28;9.93;;;1.48;;
47021;SDS011;32779;52.264;6.154;2022-12-29T06:22:54;12.65;;;1.40;;
47021;SDS011;32779;52.264;6.154;2022-12-29T06:25:19;10.68;;;1.83;;
47021;SDS011;32779;52.264;6.154;2022-12-29T06:27:45;8.65;;;1.40;;
47021;SDS011;32779;52.264;6.154;2022-12-29T06:30:11;6.70;;;1.63;;
47021;SDS011;32779;52.264;6.154;2022-12-29T06:32:37;10.68;;;1.13;;
47021;SDS011;32779;52.264;6.154;2022-12-29T06:35:04;10.32;;;1.70;;
47021;SDS011;32779;52.264;6.154;2022-12-29T06:37:33;15.25;;;2.30;;
47021;SDS011;32779;52.264;6.154;2022-12-29T06:39:58;9.25;;;1.40;;
47021;SDS011;32779;52.264;6.154;2022-12-29T06:42:24;7.22;;;1.38;;
47021;SDS011;32779;52.264;6.154;2022-12-29T06:44:49;7.15;;;1.33;;
47021;SDS011;32779;52.264;6.154;2022-12-29T06:47:15;8.15;;;1.40;;
47021;SDS011;32779;52.264;6.154;2022-12-29T06:49:41;9.77;;;1.63;;
47021;SDS011;32779;52.264;6.154;2022-12-29T06:52:06;9.10;;;1.65;;
47021;SDS011;32779;52.264;6.154;2022-12-29T06:54:32;12.60;;;1.95;;
47021;SDS011;32779;52.264;6.154;2022-12-29T06:56:58;14.38;;;2.47;;
47021;SDS011;32779;52.264;6.154;2022-12-29T06:59:24;7.75;;;1.50;;
47021;SDS011;32779;52.264;6.154;2022-12-29T07:01:50;10.57;;;1.70;;
47021;SDS011;32779;52.264;6.154;2022-12-29T07:04:16;8.70;;;1.88;;
47021;SDS011;32779;52.264;6.154;2022-12-29T07:06:41;9.80;;;1.42;;
47021;SDS011;32779;52.264;6.154;2022-12-29T07:09:07;6.88;;;1.42;;
47021;SDS011;32779;52.264;6.154;2022-12-29T07:11:34;10.48;;;1.60;;
47021;SDS011;32779;52.264;6.154;2022-12-29T07:14:00;11.98;;;1.55;;
47021;SDS011;32779;52.264;6.154;2022-12-29T07:16:25;10.70;;;1.60;;
47021;SDS011;32779;52.264;6.154;2022-12-29T07:18:51;8.00;;;1.55;;
47021;SDS011;32779;52.264;6.154;2022-12-29T07:21:23;10.02;;;2.08;;
47021;SDS011;32779;52.264;6.154;2022-12-29T07:23:48;9.63;;;1.70;;
47021;SDS011;32779;52.264;6.154;2022-12-29T07:26:14;16.67;;;1.80;;
47021;SDS011;32779;52.264;6.154;2022-12-29T07:28:43;9.60;;;1.60;;
47021;SDS011;32779;52.264;6.154;2022-12-29T07:31:15;9.57;;;1.67;;
47021;SDS011;32779;52.264;6.154;2022-12-29T07:33:43;8.70;;;1.25;;
47021;SDS011;32779;52.264;6.154;2022-12-29T07:36:10;9.27;;;1.70;;
47021;SDS011;32779;52.264;6.154;2022-12-29T07:38:36;13.18;;;1.63;;
47021;SDS011;32779;52.264;6.154;2022-12-29T07:41:02;13.25;;;1.48;;
47021;SDS011;32779;52.264;6.154;2022-12-29T07:43:28;16.17;;;1.85;;
47021;SDS011;32779;52.264;6.154;2022-12-29T07:45:56;14.95;;;1.98;;
47021;SDS011;32779;52.264;6.154;2022-12-29T07:48:22;12.07;;;1.90;;
47021;SDS011;32779;52.264;6.154;2022-12-29T07:50:47;11.05;;;1.33;;
47021;SDS011;32779;52.264;6.154;2022-12-29T07:53:13;7.65;;;1.20;;
47021;SDS011;32779;52.264;6.154;2022-12-29T07:55:39;9.25;;;1.58;;
47021;SDS011;32779;52.264;6.154;2022-12-29T07:58:05;9.30;;;1.73;;
47021;SDS011;32779;52.264;6.154;2022-12-29T08:00:31;11.02;;;2.10;;
47021;SDS011;32779;52.264;6.154;2022-12-29T08:02:56;10.43;;;1.60;;
47021;SDS011;32779;52.264;6.154;2022-12-29T08:05:22;10.15;;;1.88;;
47021;SDS011;32779;52.264;6.154;2022-12-29T08:07:48;12.85;;;2.25;;
47021;SDS011;32779;52.264;6.154;2022-12-29T08:10:14;11.30;;;2.13;;
47021;SDS011;32779;52.264;6.154;2022-12-29T08:12:40;10.40;;;2.03;;
47021;SDS011;32779;52.264;6.154;2022-12-29T08:15:07;9.63;;;2.10;;
47021;SDS011;32779;52.264;6.154;2022-12-29T08:17:33;7.70;;;1.92;;
47021;SDS011;32779;52.264;6.154;2022-12-29T08:22:25;8.02;;;1.52;;
47021;SDS011;32779;52.264;6.154;2022-12-29T08:24:51;9.25;;;1.40;;
47021;SDS011;32779;52.264;6.154;2022-12-29T08:27:16;12.60;;;1.60;;
47021;SDS011;32779;52.264;6.154;2022-12-29T08:29:42;9.75;;;1.58;;
47021;SDS011;32779;52.264;6.154;2022-12-29T08:32:08;6.78;;;1.73;;
47021;SDS011;32779;52.264;6.154;2022-12-29T08:34:34;7.00;;;1.60;;
47021;SDS011;32779;52.264;6.154;2022-12-29T08:36:59;6.13;;;1.30;;
47021;SDS011;32779;52.264;6.154;2022-12-29T08:39:25;8.43;;;1.83;;
47021;SDS011;32779;52.264;6.154;2022-12-29T08:41:50;10.15;;;1.95;;
47021;SDS011;32779;52.264;6.154;2022-12-29T08:44:16;13.70;;;2.40;;
47021;SDS011;32779;52.264;6.154;2022-12-29T08:46:41;12.35;;;2.58;;
47021;SDS011;32779;52.264;6.154;2022-12-29T08:49:07;8.15;;;2.05;;
47021;SDS011;32779;52.264;6.154;2022-12-29T08:51:32;17.05;;;2.38;;
47021;SDS011;32779;52.264;6.154;2022-12-29T08:53:58;8.88;;;1.73;;
47021;SDS011;32779;52.264;6.154;2022-12-29T08:56:24;10.40;;;2.10;;
47021;SDS011;32779;52.264;6.154;2022-12-29T08:58:50;14.18;;;3.08;;
47021;SDS011;32779;52.264;6.154;2022-12-29T09:01:16;11.05;;;2.20;;
47021;SDS011;32779;52.264;6.154;2022-12-29T09:03:42;11.80;;;2.22;;
47021;SDS011;32779;52.264;6.154;2022-12-29T09:06:07;16.00;;;2.17;;
47021;SDS011;32779;52.264;6.154;2022-12-29T09:08:33;14.02;;;2.17;;
47021;SDS011;32779;52.264;6.154;2022-12-29T09:11:09;14.50;;;2.22;;
47021;SDS011;32779;52.264;6.154;2022-12-29T09:13:37;12.32;;;1.75;;
47021;SDS011;32779;52.264;6.154;2022-12-29T09:16:03;13.10;;;2.00;;
47021;SDS011;32779;52.264;6.154;2022-12-29T09:18:29;13.45;;;2.40;;
47021;SDS011;32779;52.264;6.154;2022-12-29T09:23:21;11.23;;;2.30;;
47021;SDS011;32779;52.264;6.154;2022-12-29T09:25:47;12.85;;;1.63;;
47021;SDS011;32779;52.264;6.154;2022-12-29T09:28:13;15.38;;;2.28;;
47021;SDS011;32779;52.264;6.154;2022-12-29T09:30:38;9.23;;;1.83;;
47021;SDS011;32779;52.264;6.154;2022-12-29T09:33:04;17.33;;;2.47;;
47021;SDS011;32779;52.264;6.154;2022-12-29T09:35:30;13.05;;;1.90;;
47021;SDS011;32779;52.264;6.154;2022-12-29T09:37:55;18.85;;;2.47;;
47021;SDS011;32779;52.264;6.154;2022-12-29T09:40:28;15.55;;;2.25;;
47021;SDS011;32779;52.264;6.154;2022-12-29T09:45:53;18.33;;;1.92;;
47021;SDS011;32779;52.264;6.154;2022-12-29T09:48:34;15.57;;;2.00;;
47021;SDS011;32779;52.264;6.154;2022-12-29T09:51:07;14.73;;;2.30;;
47021;SDS011;32779;52.264;6.154;2022-12-29T09:53:36;11.13;;;1.65;;
47021;SDS011;32779;52.264;6.154;2022-12-29T09:56:07;10.45;;;1.75;;
47021;SDS011;32779;52.264;6.154;2022-12-29T09:58:48;12.10;;;3.03;;
47021;SDS011;32779;52.264;6.154;2022-12-29T10:04:16;16.55;;;2.45;;
47021;SDS011;32779;52.264;6.154;2022-12-29T10:06:46;13.60;;;2.13;;
47021;SDS011;32779;52.264;6.154;2022-12-29T10:12:06;12.88;;;2.00;;
47021;SDS011;32779;52.264;6.154;2022-12-29T10:20:18;14.27;;;2.33;;
47021;SDS011;32779;52.264;6.154;2022-12-29T10:25:42;11.48;;;1.85;;
47021;SDS011;32779;52.264;6.154;2022-12-29T10:30:46;11.57;;;2.28;;
47021;SDS011;32779;52.264;6.154;2022-12-29T10:33:15;13.10;;;1.98;;
47021;SDS011;32779;52.264;6.154;2022-12-29T10:35:45;13.45;;;2.35;;
47021;SDS011;32779;52.264;6.154;2022-12-29T10:38:26;14.68;;;2.05;;
47021;SDS011;32779;52.264;6.154;2022-12-29T10:41:02;12.55;;;2.00;;
47021;SDS011;32779;52.264;6.154;2022-12-29T10:43:44;14.73;;;2.60;;
47021;SDS011;32779;52.264;6.154;2022-12-29T10:46:13;12.43;;;2.20;;
47021;SDS011;32779;52.264;6.154;2022-12-29T10:48:42;14.18;;;1.92;;
47021;SDS011;32779;52.264;6.154;2022-12-29T10:51:11;11.65;;;2.30;;
47021;SDS011;32779;52.264;6.154;2022-12-29T10:58:54;6.07;;;1.77;;
47021;SDS011;32779;52.264;6.154;2022-12-29T11:01:25;9.88;;;1.77;;
47021;SDS011;32779;52.264;6.154;2022-12-29T11:04:22;12.55;;;1.83;;
47021;SDS011;32779;52.264;6.154;2022-12-29T11:07:01;6.80;;;2.00;;
47021;SDS011;32779;52.264;6.154;2022-12-29T11:09:28;8.25;;;1.80;;
47021;SDS011;32779;52.264;6.154;2022-12-29T11:11:56;13.90;;;2.58;;
47021;SDS011;32779;52.264;6.154;2022-12-29T11:14:26;9.00;;;1.90;;
47021;SDS011;32779;52.264;6.154;2022-12-29T11:16:58;10.35;;;2.00;;
47021;SDS011;32779;52.264;6.154;2022-12-29T11:19:26;13.70;;;2.40;;
47021;SDS011;32779;52.264;6.154;2022-12-29T11:21:53;6.53;;;1.73;;
47021;SDS011;32779;52.264;6.154;2022-12-29T11:24:21;9.20;;;2.47;;
47021;SDS011;32779;52.264;6.154;2022-12-29T11:26:50;17.05;;;2.22;;
47021;SDS011;32779;52.264;6.154;2022-12-29T11:32:04;9.77;;;2.08;;
47021;SDS011;32779;52.264;6.154;2022-12-29T11:34:37;9.57;;;2.60;;
47021;SDS011;32779;52.264;6.154;2022-12-29T11:37:04;13.10;;;2.20;;
47021;SDS011;32779;52.264;6.154;2022-12-29T11:42:20;12.15;;;2.25;;
47021;SDS011;32779;52.264;6.154;2022-12-29T11:44:49;14.10;;;2.95;;
47021;SDS011;32779;52.264;6.154;2022-12-29T11:47:21;18.88;;;2.90;;
47021;SDS011;32779;52.264;6.154;2022-12-29T11:49:53;13.00;;;3.03;;
47021;SDS011;32779;52.264;6.154;2022-12-29T11:52:23;16.23;;;3.10;;
47021;SDS011;32779;52.264;6.154;2022-12-29T11:54:52;14.98;;;3.55;;
47021;SDS011;32779;52.264;6.154;2022-12-29T11:57:19;14.02;;;2.97;;
47021;SDS011;32779;52.264;6.154;2022-12-29T12:05:09;19.48;;;4.00;;
47021;SDS011;32779;52.264;6.154;2022-12-29T12:08:08;21.92;;;3.40;;
47021;SDS011;32779;52.264;6.154;2022-12-29T12:11:06;15.45;;;3.55;;
47021;SDS011;32779;52.264;6.154;2022-12-29T12:16:18;17.02;;;3.30;;
47021;SDS011;32779;52.264;6.154;2022-12-29T12:18:50;11.82;;;3.30;;
47021;SDS011;32779;52.264;6.154;2022-12-29T12:21:21;18.50;;;3.15;;
47021;SDS011;32779;52.264;6.154;2022-12-29T12:29:45;18.00;;;3.55;;
47021;SDS011;32779;52.264;6.154;2022-12-29T12:32:17;12.52;;;3.22;;
47021;SDS011;32779;52.264;6.154;2022-12-29T12:34:47;17.88;;;3.20;;
47021;SDS011;32779;52.264;6.154;2022-12-29T12:42:58;18.38;;;3.45;;
47021;SDS011;32779;52.264;6.154;2022-12-29T12:48:52;16.45;;;2.83;;
47021;SDS011;32779;52.264;6.154;2022-12-29T12:54:43;10.77;;;2.80;;
47021;SDS011;32779;52.264;6.154;2022-12-29T13:00:20;16.30;;;3.05;;
47021;SDS011;32779;52.264;6.154;2022-12-29T13:05:47;16.85;;;3.45;;
47021;SDS011;32779;52.264;6.154;2022-12-29T13:08:33;17.52;;;3.28;;
47021;SDS011;32779;52.264;6.154;2022-12-29T13:11:23;20.48;;;3.28;;
47021;SDS011;32779;52.264;6.154;2022-12-29T13:22:52;21.63;;;7.07;;
47021;SDS011;32779;52.264;6.154;2022-12-29T13:26:13;19.35;;;5.75;;
47021;SDS011;32779;52.264;6.154;2022-12-29T13:28:59;18.63;;;4.22;;
47021;SDS011;32779;52.264;6.154;2022-12-29T13:32:05;15.32;;;3.97;;
47021;SDS011;32779;52.264;6.154;2022-12-29T13:34:39;20.48;;;3.75;;
47021;SDS011;32779;52.264;6.154;2022-12-29T13:37:17;17.48;;;4.00;;
47021;SDS011;32779;52.264;6.154;2022-12-29T13:39:52;17.08;;;4.18;;
47021;SDS011;32779;52.264;6.154;2022-12-29T13:42:22;20.52;;;3.97;;
47021;SDS011;32779;52.264;6.154;2022-12-29T13:44:51;16.75;;;3.70;;
47021;SDS011;32779;52.264;6.154;2022-12-29T13:47:34;21.23;;;5.88;;
47021;SDS011;32779;52.264;6.154;2022-12-29T13:50:03;19.23;;;3.80;;
47021;SDS011;32779;52.264;6.154;2022-12-29T14:06:21;18.80;;;4.15;;
47021;SDS011;32779;52.264;6.154;2022-12-29T14:08:51;25.35;;;4.90;;
47021;SDS011;32779;52.264;6.154;2022-12-29T14:11:29;19.85;;;4.50;;
47021;SDS011;32779;52.264;6.154;2022-12-29T14:14:10;17.95;;;4.70;;
47021;SDS011;32779;52.264;6.154;2022-12-29T14:16:47;16.73;;;3.63;;
47021;SDS011;32779;52.264;6.154;2022-12-29T14:19:20;14.52;;;3.85;;
47021;SDS011;32779;52.264;6.154;2022-12-29T14:21:52;14.98;;;3.35;;
47021;SDS011;32779;52.264;6.154;2022-12-29T14:27:22;17.25;;;4.75;;
47021;SDS011;32779;52.264;6.154;2022-12-29T14:34:51;22.40;;;5.53;;
47021;SDS011;32779;52.264;6.154;2022-12-29T14:40:05;23.17;;;4.43;;
47021;SDS011;32779;52.264;6.154;2022-12-29T14:42:42;25.77;;;4.82;;
47021;SDS011;32779;52.264;6.154;2022-12-29T14:47:38;17.33;;;4.60;;
47021;SDS011;32779;52.264;6.154;2022-12-29T14:53:10;14.30;;;3.83;;
47021;SDS011;32779;52.264;6.154;2022-12-29T14:56:10;17.88;;;4.38;;
47021;SDS011;32779;52.264;6.154;2022-12-29T15:01:33;16.25;;;4.68;;
47021;SDS011;32779;52.264;6.154;2022-12-29T15:04:15;18.67;;;4.53;;
47021;SDS011;32779;52.264;6.154;2022-12-29T15:06:43;13.13;;;3.15;;
47021;SDS011;32779;52.264;6.154;2022-12-29T15:11:56;15.35;;;3.80;;
47021;SDS011;32779;52.264;6.154;2022-12-29T15:14:36;8.65;;;3.92;;
47021;SDS011;32779;52.264;6.154;2022-12-29T15:17:22;12.30;;;4.95;;
47021;SDS011;32779;52.264;6.154;2022-12-29T15:19:53;6.97;;;2.80;;
47021;SDS011;32779;52.264;6.154;2022-12-29T15:22:21;7.75;;;2.30;;
47021;SDS011;32779;52.264;6.154;2022-12-29T15:24:47;15.88;;;5.25;;
47021;SDS011;32779;52.264;6.154;2022-12-29T15:27:19;5.40;;;2.20;;
47021;SDS011;32779;52.264;6.154;2022-12-29T15:29:46;8.55;;;4.78;;
47021;SDS011;32779;52.264;6.154;2022-12-29T15:34:44;9.88;;;4.25;;
47021;SDS011;32779;52.264;6.154;2022-12-29T15:37:16;7.28;;;3.25;;
47021;SDS011;32779;52.264;6.154;2022-12-29T15:39:44;9.02;;;3.15;;
47021;SDS011;32779;52.264;6.154;2022-12-29T15:45:10;9.65;;;2.95;;
47021;SDS011;32779;52.264;6.154;2022-12-29T15:47:38;6.30;;;2.35;;
47021;SDS011;32779;52.264;6.154;2022-12-29T15:52:52;9.52;;;2.92;;
47021;SDS011;32779;52.264;6.154;2022-12-29T15:55:25;13.60;;;3.60;;
47021;SDS011;32779;52.264;6.154;2022-12-29T15:57:57;14.25;;;3.30;;
47021;SDS011;32779;52.264;6.154;2022-12-29T16:00:28;13.00;;;3.65;;
47021;SDS011;32779;52.264;6.154;2022-12-29T16:02:59;10.38;;;3.15;;
47021;SDS011;32779;52.264;6.154;2022-12-29T16:05:39;16.65;;;3.53;;
47021;SDS011;32779;52.264;6.154;2022-12-29T16:08:21;6.03;;;3.13;;
47021;SDS011;32779;52.264;6.154;2022-12-29T16:10:57;10.43;;;3.47;;
47021;SDS011;32779;52.264;6.154;2022-12-29T16:13:28;12.27;;;3.35;;
47021;SDS011;32779;52.264;6.154;2022-12-29T16:15:59;13.07;;;3.65;;
47021;SDS011;32779;52.264;6.154;2022-12-29T16:18:44;17.15;;;4.50;;
47021;SDS011;32779;52.264;6.154;2022-12-29T16:21:24;13.82;;;3.60;;
47021;SDS011;32779;52.264;6.154;2022-12-29T16:23:59;14.82;;;3.30;;
47021;SDS011;32779;52.264;6.154;2022-12-29T16:26:27;12.32;;;3.75;;
47021;SDS011;32779;52.264;6.154;2022-12-29T16:29:00;12.70;;;4.13;;
47021;SDS011;32779;52.264;6.154;2022-12-29T16:34:31;12.57;;;4.15;;
47021;SDS011;32779;52.264;6.154;2022-12-29T16:36:59;15.60;;;4.03;;
47021;SDS011;32779;52.264;6.154;2022-12-29T16:39:30;15.35;;;4.30;;
47021;SDS011;32779;52.264;6.154;2022-12-29T16:41:58;15.65;;;7.00;;
47021;SDS011;32779;52.264;6.154;2022-12-29T16:44:25;17.17;;;3.45;;
47021;SDS011;32779;52.264;6.154;2022-12-29T16:49:42;16.48;;;4.55;;
47021;SDS011;32779;52.264;6.154;2022-12-29T16:52:22;18.40;;;4.18;;
47021;SDS011;32779;52.264;6.154;2022-12-29T16:54:54;15.32;;;3.90;;
47021;SDS011;32779;52.264;6.154;2022-12-29T16:57:23;13.85;;;3.13;;
47021;SDS011;32779;52.264;6.154;2022-12-29T16:59:53;15.48;;;3.83;;
47021;SDS011;32779;52.264;6.154;2022-12-29T17:02:21;16.50;;;3.63;;
47021;SDS011;32779;52.264;6.154;2022-12-29T17:04:50;14.75;;;3.70;;
47021;SDS011;32779;52.264;6.154;2022-12-29T17:07:21;14.98;;;3.30;;
47021;SDS011;32779;52.264;6.154;2022-12-29T17:09:49;12.63;;;3.05;;
47021;SDS011;32779;52.264;6.154;2022-12-29T17:12:19;13.77;;;3.25;;
47021;SDS011;32779;52.264;6.154;2022-12-29T17:17:38;12.38;;;3.40;;
47021;SDS011;32779;52.264;6.154;2022-12-29T17:20:08;18.77;;;7.85;;
47021;SDS011;32779;52.264;6.154;2022-12-29T17:22:50;17.23;;;3.53;;
47021;SDS011;32779;52.264;6.154;2022-12-29T17:25:20;14.88;;;3.90;;
47021;SDS011;32779;52.264;6.154;2022-12-29T17:27:53;10.82;;;3.22;;
47021;SDS011;32779;52.264;6.154;2022-12-29T17:30:24;17.77;;;3.28;;
47021;SDS011;32779;52.264;6.154;2022-12-29T17:32:52;11.88;;;4.18;;
47021;SDS011;32779;52.264;6.154;2022-12-29T17:35:29;13.70;;;2.92;;
47021;SDS011;32779;52.264;6.154;2022-12-29T17:37:55;8.20;;;2.75;;
47021;SDS011;32779;52.264;6.154;2022-12-29T17:40:23;11.15;;;3.40;;
47021;SDS011;32779;52.264;6.154;2022-12-29T17:42:52;12.10;;;3.15;;
47021;SDS011;32779;52.264;6.154;2022-12-29T17:45:23;9.00;;;2.03;;
47021;SDS011;32779;52.264;6.154;2022-12-29T17:47:54;7.85;;;2.40;;
47021;SDS011;32779;52.264;6.154;2022-12-29T17:50:23;13.25;;;2.50;;
47021;SDS011;32779;52.264;6.154;2022-12-29T17:52:51;13.70;;;3.08;;